createdAt,value
2022-10-03T04:46:47.136Z,0.01
2022-10-03T04:51:20.904Z,0.02
2022-10-03T04:54:19.430Z,0.03
2022-10-03T04:57:03.847Z,0.05
2022-10-03T04:59:34.019Z,0.09
2022-10-03T05:01:49.989Z,0.14
2022-10-03T05:03:51.892Z,0.22
2022-10-03T05:06:42.465Z,0.33
2022-10-03T05:09:18.799Z,0.49
2022-10-03T05:11:40.925Z,0.75
2022-10-03T05:13:48.846Z,1.01
2022-10-03T05:16:45.614Z,1.64
2022-10-03T05:19:27.635Z,2.41
2022-10-03T05:21:55.954Z,3.08
2022-10-03T05:24:10.058Z,4.04
2022-10-03T05:26:32.561Z,4.65
2022-10-03T05:28:58.724Z,5.92
2022-10-03T05:31:33.370Z,7.69
2022-10-03T05:33:53.669Z,9.28
2022-10-03T05:36:00.013Z,12.22
2022-10-03T05:38:55.106Z,14.92
2022-10-03T05:41:35.823Z,18.72
2022-10-03T05:44:02.359Z,21.59
2022-10-03T05:46:14.825Z,23.4
2022-10-03T05:48:12.845Z,26.3
2022-10-03T05:50:59.706Z,31.85
2022-10-03T05:53:32.721Z,38.74
2022-10-03T05:55:51.037Z,45.36
2022-10-03T05:57:55.343Z,48.48
2022-10-03T06:00:48.621Z,51.96
2022-10-03T06:03:27.731Z,61.1
2022-10-03T06:05:52.381Z,62.7
2022-10-03T06:08:03.094Z,65.22
2022-10-03T06:11:02.163Z,72.04
2022-10-03T06:13:47.335Z,82.76
2022-10-03T06:16:18.247Z,86.84
2022-10-03T06:18:35.027Z,94.36
2022-10-03T06:20:37.623Z,100.52
2022-10-03T06:23:28.942Z,110.76
2022-10-03T06:26:06.228Z,107.2
2022-10-03T06:28:29.172Z,91.64
2022-10-03T06:30:37.928Z,84.6
2022-10-03T06:33:35.600Z,81.44
2022-10-03T06:36:19.052Z,82.68
2022-10-03T06:38:48.236Z,74.38
2022-10-03T06:41:03.119Z,80.76
2022-10-03T06:43:04.006Z,88.04
2022-10-03T06:45:53.613Z,97.6
2022-10-03T06:48:28.848Z,108.48
2022-10-03T06:50:50.064Z,120.32
2022-10-03T06:52:57.031Z,128.6
2022-10-03T06:55:52.794Z,145.56
2022-10-03T06:58:34.501Z,154.08
2022-10-03T07:01:01.833Z,155.52
2022-10-03T07:03:14.541Z,166
2022-10-03T07:05:13.530Z,175.1
2022-10-03T07:08:01.370Z,182.1
2022-10-03T07:10:34.969Z,180.9
2022-10-03T07:12:54.270Z,179.5
2022-10-03T07:14:59.567Z,191.7
2022-10-03T07:17:53.582Z,195.3
2022-10-03T07:20:33.192Z,201
2022-10-03T07:22:58.863Z,200.8
2022-10-03T07:25:10.329Z,198.4
2022-10-03T07:28:10.540Z,204.6
2022-10-03T07:30:56.453Z,178.9
2022-10-03T07:33:28.171Z,154.12
2022-10-03T07:35:45.691Z,160.24
2022-10-03T07:37:49.192Z,274.8
2022-10-03T07:40:41.337Z,260.6
2022-10-03T07:43:19.288Z,269.9
2022-10-03T07:45:43.015Z,274.9
2022-10-03T07:47:52.665Z,282.9
2022-10-03T07:50:50.980Z,285.7
2022-10-03T07:53:35.061Z,287.5
2022-10-03T07:56:08.701Z,295
2022-10-03T07:58:20.363Z,298.7
2022-10-03T08:00:21.952Z,299.3
2022-10-03T08:03:12.377Z,306
2022-10-03T08:05:48.421Z,309.6
2022-10-03T08:08:10.252Z,317.8
2022-10-03T08:10:17.908Z,324.4
2022-10-03T08:13:14.441Z,324.2
2022-10-03T08:15:56.810Z,332.1
2022-10-03T08:18:24.713Z,330.7
2022-10-03T08:20:38.688Z,343.6
2022-10-03T08:22:38.341Z,347.8
2022-10-03T08:25:26.636Z,353.4
2022-10-03T08:28:00.950Z,357.6
2022-10-03T08:30:21.065Z,364.1
2022-10-03T08:32:26.810Z,368.3
2022-10-03T08:35:21.532Z,373.7
2022-10-03T08:38:01.855Z,376.6
2022-10-03T08:40:28.063Z,382.8
2022-10-03T08:42:40.256Z,384.6
2022-10-03T08:44:38.027Z,391.2
2022-10-03T08:47:24.088Z,402.7
2022-10-03T08:49:56.355Z,403.2
2022-10-03T08:52:14.659Z,409.6
2022-10-03T08:54:18.642Z,444.4
2022-10-03T08:57:11.276Z,473.1
2022-10-03T08:59:49.908Z,486
2022-10-03T09:02:14.324Z,563
2022-10-03T09:04:24.386Z,598.5
2022-10-03T09:07:23.652Z,572.3
2022-10-03T09:10:08.051Z,379
2022-10-03T09:12:38.497Z,249.2
2022-10-03T09:14:54.637Z,219.3
2022-10-03T09:16:56.818Z,214.4
2022-10-03T09:19:47.572Z,357.7
2022-10-03T09:22:24.096Z,579
2022-10-03T09:24:46.663Z,560.6
2022-10-03T09:26:54.966Z,400.9
2022-10-03T09:29:51.856Z,211.8
2022-10-03T09:32:34.706Z,347.8
2022-10-03T09:35:06.943Z,509.1
2022-10-03T09:37:17.798Z,215.5
2022-10-03T09:39:17.771Z,212.4
2022-10-03T09:42:06.691Z,269.2
2022-10-03T09:44:41.415Z,433.4
2022-10-03T09:47:01.980Z,476.3
2022-10-03T09:49:08.508Z,453.7
2022-10-03T09:52:06.795Z,509.9
2022-10-03T09:54:44.565Z,780.4
2022-10-03T09:57:11.498Z,484.3
2022-10-03T09:59:24.160Z,434.7
2022-10-03T10:01:22.742Z,420.9
2022-10-03T10:04:10.410Z,430.5
2022-10-03T10:06:43.162Z,434.8
2022-10-03T10:09:01.762Z,410.7
2022-10-03T10:11:06.856Z,407.5
2022-10-03T10:14:08.138Z,332.1
2022-10-03T10:16:41.444Z,325.1
2022-10-03T10:19:04.446Z,341.6
2022-10-03T10:21:15.560Z,329.9
2022-10-03T10:24:15.219Z,292.7
2022-10-03T10:27:00.769Z,293.9
2022-10-03T10:29:32.294Z,364
2022-10-03T10:31:49.418Z,416.3
2022-10-03T10:33:52.458Z,493.2
2022-10-03T10:36:44.679Z,658.8
2022-10-03T10:39:22.455Z,490.7
2022-10-03T10:41:46.031Z,464.9
2022-10-03T10:43:55.507Z,537.9
2022-10-03T10:46:53.559Z,850.2
2022-10-03T10:49:37.659Z,538.8
2022-10-03T10:52:07.301Z,447.5
2022-10-03T10:54:23.061Z,424.3
2022-10-03T10:56:24.534Z,430
2022-10-03T10:59:14.708Z,416.4
2022-10-03T11:01:50.919Z,398.5
2022-10-03T11:04:13.005Z,410.2
2022-10-03T11:06:20.493Z,404.9
2022-10-03T11:09:17.040Z,422.7
2022-10-03T11:11:59.212Z,451.3
2022-10-03T11:14:27.003Z,460.6
2022-10-03T11:16:41.202Z,477.7
2022-10-03T11:18:40.523Z,447.2
2022-10-03T11:21:28.578Z,424
2022-10-03T11:24:02.368Z,431.8
2022-10-03T11:26:22.500Z,487.5
2022-10-03T11:28:28.418Z,534
2022-10-03T11:31:23.099Z,587.2
2022-10-03T11:34:03.740Z,851.2
2022-10-03T11:36:30.180Z,836.4
2022-10-03T11:38:42.329Z,1008.9
2022-10-03T11:40:40.586Z,808
2022-10-03T11:43:27.302Z,498.5
2022-10-03T11:45:59.822Z,512.4
2022-10-03T11:48:18.139Z,453.1
2022-10-03T11:50:22.449Z,477.7
2022-10-03T11:53:15.477Z,714.8
2022-10-03T11:55:54.254Z,655.6
2022-10-03T11:58:18.897Z,416.1
2022-10-03T12:00:29.357Z,430.2
2022-10-03T12:03:28.515Z,404.3
2022-10-03T12:06:13.611Z,417.1
2022-10-03T12:08:44.458Z,402.7
2022-10-03T12:11:01.058Z,396.4
2022-10-03T12:13:03.609Z,406.4
2022-10-03T12:15:54.510Z,362
2022-10-03T12:18:31.501Z,293.2
2022-10-03T12:20:54.242Z,306
2022-10-03T12:23:02.928Z,334.2
2022-10-03T12:26:00.306Z,452
2022-10-03T12:28:43.393Z,482.8
2022-10-03T12:31:14.886Z,381.1
2022-10-03T12:33:27.317Z,466.4
2022-10-03T12:35:27.939Z,518.2
2022-10-03T12:38:17.443Z,579.5
2022-10-03T12:40:52.662Z,634.5
2022-10-03T12:43:13.625Z,742.4
2022-10-03T12:45:20.602Z,832.6
2022-10-03T12:48:16.348Z,880.3
2022-10-03T12:50:58.072Z,807.6
2022-10-03T12:53:25.138Z,954.8
2022-10-03T12:55:38.139Z,785.9
2022-10-03T12:57:36.961Z,709.4
2022-10-03T13:00:24.747Z,910
2022-10-03T13:02:58.161Z,835.2
2022-10-03T13:05:17.425Z,682.2
2022-10-03T13:07:22.081Z,723.8
2022-10-03T13:10:16.023Z,607
2022-10-03T13:12:55.717Z,427.2
2022-10-03T13:15:21.194Z,423.2
2022-10-03T13:17:32.629Z,424.1
2022-10-03T13:20:32.705Z,487
2022-10-03T13:23:18.517Z,494
2022-10-03T13:25:50.139Z,501.6
2022-10-03T13:28:07.713Z,452.3
2022-10-03T13:30:10.995Z,460.6
2022-10-03T13:33:03.098Z,357.9
2022-10-03T13:35:41.119Z,406.4
2022-10-03T13:38:04.867Z,318.8
2022-10-03T13:40:14.402Z,263.1
2022-10-03T13:43:12.843Z,305.6
2022-10-03T13:45:57.157Z,279.6
2022-10-03T13:48:27.181Z,315.3
2022-10-03T13:50:42.417Z,275.4
2022-10-03T13:52:43.993Z,268.2
2022-10-03T13:55:34.256Z,295.2
2022-10-03T13:58:10.658Z,297.9
2022-10-03T14:00:31.974Z,251.9
2022-10-03T14:02:39.595Z,243.6
2022-10-03T14:05:35.931Z,250.4
2022-10-03T14:08:18.219Z,240.2
2022-10-03T14:10:46.330Z,236
2022-10-03T14:13:00.143Z,214.8
2022-10-03T14:15:00.001Z,194.4
2022-10-03T14:17:48.419Z,203.6
2022-10-03T14:20:03.493Z,196.4
2022-10-03T14:22:04.253Z,171.7
2022-10-03T14:24:53.774Z,180.4
2022-10-03T14:27:29.255Z,209.2
2022-10-03T14:29:50.402Z,194.9
2022-10-03T14:31:57.592Z,198.5
2022-10-03T14:34:53.241Z,208.4
2022-10-03T14:37:34.969Z,222.7
2022-10-03T14:40:02.298Z,226
2022-10-03T14:42:15.613Z,228.4
2022-10-03T14:44:14.653Z,247
2022-10-03T14:47:02.356Z,253.7
2022-10-03T14:49:53.873Z,259.6
2022-10-03T14:51:54.955Z,258.9
2022-10-03T14:54:00.120Z,236.6
2022-10-03T14:56:54.006Z,212.6
2022-10-03T14:59:33.930Z,214.9
2022-10-03T15:01:59.593Z,195.9
2022-10-03T15:04:10.979Z,187.6
2022-10-03T15:07:11.364Z,173.5
2022-10-03T15:09:57.402Z,165.8
2022-10-03T15:12:29.188Z,161.96
2022-10-03T15:14:46.725Z,163.04
2022-10-03T15:16:50.192Z,166.4
2022-10-03T15:19:42.404Z,153.12
2022-10-03T15:22:20.381Z,160.08
2022-10-03T15:24:44.338Z,164.4
2022-10-03T15:26:54.022Z,174.8
2022-10-03T15:29:52.446Z,176.9
2022-10-03T15:32:36.897Z,183.3
2022-10-03T15:35:07.089Z,187
2022-10-03T15:37:22.985Z,214.8
2022-10-03T15:39:24.803Z,231.3
2022-10-03T15:42:15.281Z,218.8
2022-10-03T15:44:51.153Z,200.9
2022-10-03T15:47:13.183Z,151.36
2022-10-03T15:49:21.112Z,147.36
2022-10-03T15:52:17.834Z,128.08
2022-10-03T15:55:11.321Z,112.04
2022-10-03T15:57:28.628Z,106.28
2022-10-03T15:59:42.689Z,100.8
2022-10-03T16:01:42.844Z,93.84
2022-10-03T16:04:31.218Z,93.52
2022-10-03T16:09:25.812Z,101.88
2022-10-03T16:11:32.004Z,102.24
2022-10-03T16:14:26.891Z,89.36
2022-10-03T16:17:07.592Z,94.72
2022-10-03T16:19:33.971Z,67.4
2022-10-03T16:21:46.301Z,61.78
2022-10-03T16:23:44.402Z,57.56
2022-10-03T16:26:31.194Z,56.76
2022-10-03T16:29:03.872Z,51
2022-10-03T16:31:22.327Z,45.26
2022-10-03T16:33:26.415Z,41.06
2022-10-03T16:36:19.111Z,34.01
2022-10-03T16:38:57.954Z,31.17
2022-10-03T16:41:22.633Z,28.79
2022-10-03T16:43:33.106Z,25.8
2022-10-03T16:46:32.303Z,21.41
2022-10-03T16:49:17.734Z,17.79
2022-10-03T16:51:47.970Z,14.35
2022-10-03T16:54:04.688Z,11.88
2022-10-03T16:56:07.182Z,10.49
2022-10-03T16:58:58.272Z,7.37
2022-10-03T17:01:36.253Z,5.33
2022-10-03T17:03:58.183Z,3.91
2022-10-03T17:06:06.770Z,2.93
2022-10-03T17:09:04.397Z,2.02
2022-10-03T17:11:47.730Z,1.44
2022-10-03T17:14:16.816Z,1.01
2022-10-03T17:16:31.682Z,0.68
2022-10-03T17:18:32.358Z,0.5
2022-10-03T17:21:21.864Z,0.32
2022-10-03T17:23:56.945Z,0.23
2022-10-03T17:26:18.083Z,0.16
2022-10-03T17:28:24.624Z,0.12
2022-10-03T17:31:20.209Z,0.07
2022-10-03T17:34:01.731Z,0.05
2022-10-03T17:36:29.152Z,0.04
2022-10-03T17:38:49.616Z,0.03
2022-10-03T17:40:41.523Z,0.02
2022-10-03T17:43:28.949Z,0.01
2022-10-03T17:58:25.779Z,0
2022-10-03T18:03:36.878Z,0.01
2022-10-03T18:11:11.609Z,0
2022-10-03T18:13:14.857Z,0.01
2022-10-03T18:16:06.813Z,0
2022-10-03T18:18:44.449Z,0.01
2022-10-03T18:23:27.150Z,0
